sensor_id;sensor_type;location;lat;lon;timestamp;P1;durP1;ratioP1;P2;durP2;ratioP2
35434;SDS011;21556;55.782;37.528;2023-04-19T00:00:32;8.18;;;5.97;;
35434;SDS011;21556;55.782;37.528;2023-04-19T00:03:06;12.75;;;6.70;;
35434;SDS011;21556;55.782;37.528;2023-04-19T00:05:36;8.43;;;5.90;;
35434;SDS011;21556;55.782;37.528;2023-04-19T00:08:06;12.75;;;6.50;;
35434;SDS011;21556;55.782;37.528;2023-04-19T00:10:32;13.45;;;6.25;;
35434;SDS011;21556;55.782;37.528;2023-04-19T00:13:06;8.65;;;6.35;;
35434;SDS011;21556;55.782;37.528;2023-04-19T00:15:32;10.02;;;6.47;;
35434;SDS011;21556;55.782;37.528;2023-04-19T00:17:59;14.38;;;6.28;;
35434;SDS011;21556;55.782;37.528;2023-04-19T00:20:28;7.45;;;6.00;;
35434;SDS011;21556;55.782;37.528;2023-04-19T00:22:54;10.20;;;6.53;;
35434;SDS011;21556;55.782;37.528;2023-04-19T00:25:19;8.98;;;6.35;;
35434;SDS011;21556;55.782;37.528;2023-04-19T00:27:45;8.82;;;6.72;;
35434;SDS011;21556;55.782;37.528;2023-04-19T00:30:11;9.50;;;6.38;;
35434;SDS011;21556;55.782;37.528;2023-04-19T00:37:38;12.88;;;6.82;;
35434;SDS011;21556;55.782;37.528;2023-04-19T00:40:06;11.02;;;7.00;;
35434;SDS011;21556;55.782;37.528;2023-04-19T00:42:41;9.02;;;7.63;;
35434;SDS011;21556;55.782;37.528;2023-04-19T00:45:07;8.40;;;6.65;;
35434;SDS011;21556;55.782;37.528;2023-04-19T00:47:35;9.02;;;6.15;;
35434;SDS011;21556;55.782;37.528;2023-04-19T00:50:04;10.32;;;6.63;;
35434;SDS011;21556;55.782;37.528;2023-04-19T00:52:33;11.48;;;6.88;;
35434;SDS011;21556;55.782;37.528;2023-04-19T00:55:00;8.48;;;6.47;;
35434;SDS011;21556;55.782;37.528;2023-04-19T00:57:30;11.48;;;6.72;;
35434;SDS011;21556;55.782;37.528;2023-04-19T00:59:56;9.43;;;7.22;;
35434;SDS011;21556;55.782;37.528;2023-04-19T01:02:22;12.85;;;6.80;;
35434;SDS011;21556;55.782;37.528;2023-04-19T01:04:48;13.07;;;6.70;;
35434;SDS011;21556;55.782;37.528;2023-04-19T01:07:14;10.00;;;6.65;;
35434;SDS011;21556;55.782;37.528;2023-04-19T01:09:45;9.23;;;6.35;;
35434;SDS011;21556;55.782;37.528;2023-04-19T01:12:17;8.00;;;7.00;;
35434;SDS011;21556;55.782;37.528;2023-04-19T01:14:43;9.55;;;7.40;;
35434;SDS011;21556;55.782;37.528;2023-04-19T01:17:09;8.57;;;6.10;;
35434;SDS011;21556;55.782;37.528;2023-04-19T01:19:35;9.90;;;7.03;;
35434;SDS011;21556;55.782;37.528;2023-04-19T01:22:03;9.70;;;6.95;;
35434;SDS011;21556;55.782;37.528;2023-04-19T01:24:31;8.82;;;6.75;;
35434;SDS011;21556;55.782;37.528;2023-04-19T01:26:58;10.70;;;5.75;;
35434;SDS011;21556;55.782;37.528;2023-04-19T01:31:55;13.23;;;6.20;;
35434;SDS011;21556;55.782;37.528;2023-04-19T01:34:22;12.20;;;7.05;;
35434;SDS011;21556;55.782;37.528;2023-04-19T01:36:48;9.82;;;6.25;;
35434;SDS011;21556;55.782;37.528;2023-04-19T01:39:14;9.20;;;6.57;;
35434;SDS011;21556;55.782;37.528;2023-04-19T01:41:40;7.18;;;6.00;;
35434;SDS011;21556;55.782;37.528;2023-04-19T01:44:08;12.15;;;6.80;;
35434;SDS011;21556;55.782;37.528;2023-04-19T01:46:36;11.38;;;6.80;;
35434;SDS011;21556;55.782;37.528;2023-04-19T01:49:05;9.02;;;6.65;;
35434;SDS011;21556;55.782;37.528;2023-04-19T01:51:32;9.60;;;6.82;;
35434;SDS011;21556;55.782;37.528;2023-04-19T01:53:59;9.97;;;6.67;;
35434;SDS011;21556;55.782;37.528;2023-04-19T01:56:26;12.35;;;6.82;;
35434;SDS011;21556;55.782;37.528;2023-04-19T01:58:53;12.18;;;8.07;;
35434;SDS011;21556;55.782;37.528;2023-04-19T02:01:19;12.70;;;6.90;;
35434;SDS011;21556;55.782;37.528;2023-04-19T02:03:45;9.52;;;7.10;;
35434;SDS011;21556;55.782;37.528;2023-04-19T02:06:11;7.93;;;5.97;;
35434;SDS011;21556;55.782;37.528;2023-04-19T02:08:41;8.77;;;6.50;;
35434;SDS011;21556;55.782;37.528;2023-04-19T02:11:07;11.57;;;6.22;;
35434;SDS011;21556;55.782;37.528;2023-04-19T02:13:35;9.18;;;6.18;;
35434;SDS011;21556;55.782;37.528;2023-04-19T02:16:01;7.88;;;6.07;;
35434;SDS011;21556;55.782;37.528;2023-04-19T02:18:28;8.07;;;5.65;;
35434;SDS011;21556;55.782;37.528;2023-04-19T02:20:57;17.58;;;6.30;;
35434;SDS011;21556;55.782;37.528;2023-04-19T02:23:24;11.90;;;6.93;;
35434;SDS011;21556;55.782;37.528;2023-04-19T02:25:50;9.52;;;6.40;;
35434;SDS011;21556;55.782;37.528;2023-04-19T02:28:16;10.25;;;6.68;;
35434;SDS011;21556;55.782;37.528;2023-04-19T02:30:43;9.25;;;6.90;;
35434;SDS011;21556;55.782;37.528;2023-04-19T02:33:08;12.45;;;6.63;;
35434;SDS011;21556;55.782;37.528;2023-04-19T02:35:34;8.32;;;6.43;;
35434;SDS011;21556;55.782;37.528;2023-04-19T02:38:01;9.20;;;6.40;;
35434;SDS011;21556;55.782;37.528;2023-04-19T02:40:28;9.45;;;6.70;;
35434;SDS011;21556;55.782;37.528;2023-04-19T02:42:57;11.30;;;6.72;;
35434;SDS011;21556;55.782;37.528;2023-04-19T02:45:23;12.40;;;6.63;;
35434;SDS011;21556;55.782;37.528;2023-04-19T02:47:49;9.20;;;6.80;;
35434;SDS011;21556;55.782;37.528;2023-04-19T02:50:16;9.77;;;6.15;;
35434;SDS011;21556;55.782;37.528;2023-04-19T02:52:48;13.85;;;6.95;;
35434;SDS011;21556;55.782;37.528;2023-04-19T02:55:13;7.63;;;6.03;;
35434;SDS011;21556;55.782;37.528;2023-04-19T02:57:39;11.38;;;6.40;;
35434;SDS011;21556;55.782;37.528;2023-04-19T03:02:36;8.88;;;5.97;;
35434;SDS011;21556;55.782;37.528;2023-04-19T03:05:04;7.63;;;5.93;;
35434;SDS011;21556;55.782;37.528;2023-04-19T03:07:31;9.95;;;6.40;;
35434;SDS011;21556;55.782;37.528;2023-04-19T03:09:57;9.98;;;6.88;;
35434;SDS011;21556;55.782;37.528;2023-04-19T03:12:24;7.85;;;5.82;;
35434;SDS011;21556;55.782;37.528;2023-04-19T03:14:50;13.07;;;5.63;;
35434;SDS011;21556;55.782;37.528;2023-04-19T03:17:16;8.38;;;5.78;;
35434;SDS011;21556;55.782;37.528;2023-04-19T03:19:43;11.23;;;6.40;;
35434;SDS011;21556;55.782;37.528;2023-04-19T03:22:10;11.23;;;5.95;;
35434;SDS011;21556;55.782;37.528;2023-04-19T03:24:37;4.65;;;4.20;;
35434;SDS011;21556;55.782;37.528;2023-04-19T03:27:15;8.82;;;5.80;;
35434;SDS011;21556;55.782;37.528;2023-04-19T03:29:45;8.57;;;6.13;;
35434;SDS011;21556;55.782;37.528;2023-04-19T03:32:11;8.82;;;6.03;;
35434;SDS011;21556;55.782;37.528;2023-04-19T03:34:37;10.75;;;6.10;;
35434;SDS011;21556;55.782;37.528;2023-04-19T03:37:03;9.70;;;6.22;;
35434;SDS011;21556;55.782;37.528;2023-04-19T03:39:30;10.48;;;6.05;;
35434;SDS011;21556;55.782;37.528;2023-04-19T03:42:02;9.48;;;6.25;;
35434;SDS011;21556;55.782;37.528;2023-04-19T03:44:46;8.50;;;6.13;;
35434;SDS011;21556;55.782;37.528;2023-04-19T03:47:15;10.15;;;5.90;;
35434;SDS011;21556;55.782;37.528;2023-04-19T03:49:45;14.52;;;5.82;;
35434;SDS011;21556;55.782;37.528;2023-04-19T03:52:11;10.30;;;5.97;;
35434;SDS011;21556;55.782;37.528;2023-04-19T03:54:37;8.77;;;5.82;;
35434;SDS011;21556;55.782;37.528;2023-04-19T03:57:10;10.20;;;5.70;;
35434;SDS011;21556;55.782;37.528;2023-04-19T03:59:48;9.88;;;6.32;;
35434;SDS011;21556;55.782;37.528;2023-04-19T04:02:25;10.00;;;5.90;;
35434;SDS011;21556;55.782;37.528;2023-04-19T04:04:54;13.93;;;6.30;;
35434;SDS011;21556;55.782;37.528;2023-04-19T04:07:21;11.05;;;6.75;;
35434;SDS011;21556;55.782;37.528;2023-04-19T04:09:48;10.93;;;6.80;;
35434;SDS011;21556;55.782;37.528;2023-04-19T04:12:14;9.27;;;5.55;;
35434;SDS011;21556;55.782;37.528;2023-04-19T04:14:41;19.20;;;6.20;;
35434;SDS011;21556;55.782;37.528;2023-04-19T04:17:09;9.38;;;6.25;;
35434;SDS011;21556;55.782;37.528;2023-04-19T04:19:36;12.25;;;6.28;;
35434;SDS011;21556;55.782;37.528;2023-04-19T04:22:02;12.80;;;5.75;;
35434;SDS011;21556;55.782;37.528;2023-04-19T04:24:36;8.35;;;6.00;;
35434;SDS011;21556;55.782;37.528;2023-04-19T04:27:18;8.02;;;6.15;;
35434;SDS011;21556;55.782;37.528;2023-04-19T04:29:50;9.40;;;5.47;;
35434;SDS011;21556;55.782;37.528;2023-04-19T04:32:16;11.57;;;6.13;;
35434;SDS011;21556;55.782;37.528;2023-04-19T04:34:49;9.32;;;5.85;;
35434;SDS011;21556;55.782;37.528;2023-04-19T04:37:25;10.18;;;5.53;;
35434;SDS011;21556;55.782;37.528;2023-04-19T04:39:51;10.40;;;6.22;;
35434;SDS011;21556;55.782;37.528;2023-04-19T04:42:20;10.23;;;5.65;;
35434;SDS011;21556;55.782;37.528;2023-04-19T04:44:46;6.40;;;5.22;;
35434;SDS011;21556;55.782;37.528;2023-04-19T04:47:12;11.13;;;5.80;;
35434;SDS011;21556;55.782;37.528;2023-04-19T04:49:45;11.93;;;6.25;;
35434;SDS011;21556;55.782;37.528;2023-04-19T04:52:11;11.95;;;5.75;;
35434;SDS011;21556;55.782;37.528;2023-04-19T04:54:50;10.27;;;5.70;;
35434;SDS011;21556;55.782;37.528;2023-04-19T04:57:25;13.70;;;6.43;;
35434;SDS011;21556;55.782;37.528;2023-04-19T04:59:51;11.43;;;7.40;;
35434;SDS011;21556;55.782;37.528;2023-04-19T05:02:18;15.45;;;7.60;;
35434;SDS011;21556;55.782;37.528;2023-04-19T05:04:48;15.82;;;7.43;;
35434;SDS011;21556;55.782;37.528;2023-04-19T05:07:14;9.95;;;6.68;;
35434;SDS011;21556;55.782;37.528;2023-04-19T05:09:40;12.00;;;7.05;;
35434;SDS011;21556;55.782;37.528;2023-04-19T05:12:06;12.60;;;6.70;;
35434;SDS011;21556;55.782;37.528;2023-04-19T05:14:32;13.35;;;7.30;;
35434;SDS011;21556;55.782;37.528;2023-04-19T05:16:59;14.20;;;7.10;;
35434;SDS011;21556;55.782;37.528;2023-04-19T05:19:46;16.57;;;8.00;;
35434;SDS011;21556;55.782;37.528;2023-04-19T05:22:12;12.90;;;7.30;;
35434;SDS011;21556;55.782;37.528;2023-04-19T05:24:38;13.48;;;7.78;;
35434;SDS011;21556;55.782;37.528;2023-04-19T05:27:04;14.20;;;6.28;;
35434;SDS011;21556;55.782;37.528;2023-04-19T05:29:31;10.93;;;6.50;;
35434;SDS011;21556;55.782;37.528;2023-04-19T05:31:57;10.60;;;7.20;;
35434;SDS011;21556;55.782;37.528;2023-04-19T05:34:33;15.75;;;7.60;;
35434;SDS011;21556;55.782;37.528;2023-04-19T05:37:01;12.63;;;6.68;;
35434;SDS011;21556;55.782;37.528;2023-04-19T05:39:30;16.17;;;7.45;;
35434;SDS011;21556;55.782;37.528;2023-04-19T05:42:08;11.95;;;6.75;;
35434;SDS011;21556;55.782;37.528;2023-04-19T05:44:35;13.13;;;6.70;;
35434;SDS011;21556;55.782;37.528;2023-04-19T05:47:00;11.80;;;6.70;;
35434;SDS011;21556;55.782;37.528;2023-04-19T05:50:05;13.13;;;6.68;;
35434;SDS011;21556;55.782;37.528;2023-04-19T05:55:36;15.77;;;7.15;;
35434;SDS011;21556;55.782;37.528;2023-04-19T05:58:07;11.32;;;6.68;;
35434;SDS011;21556;55.782;37.528;2023-04-19T06:00:52;12.63;;;6.57;;
35434;SDS011;21556;55.782;37.528;2023-04-19T06:03:20;9.32;;;5.68;;
35434;SDS011;21556;55.782;37.528;2023-04-19T06:05:46;10.60;;;6.03;;
35434;SDS011;21556;55.782;37.528;2023-04-19T06:08:12;15.27;;;6.45;;
35434;SDS011;21556;55.782;37.528;2023-04-19T06:14:01;11.35;;;6.32;;
35434;SDS011;21556;55.782;37.528;2023-04-19T06:16:27;11.70;;;6.07;;
35434;SDS011;21556;55.782;37.528;2023-04-19T06:18:53;12.10;;;5.90;;
35434;SDS011;21556;55.782;37.528;2023-04-19T06:21:19;14.82;;;6.68;;
35434;SDS011;21556;55.782;37.528;2023-04-19T06:23:45;13.48;;;6.07;;
35434;SDS011;21556;55.782;37.528;2023-04-19T06:26:12;15.45;;;5.97;;
35434;SDS011;21556;55.782;37.528;2023-04-19T06:28:39;12.75;;;6.20;;
35434;SDS011;21556;55.782;37.528;2023-04-19T06:31:05;13.13;;;6.60;;
35434;SDS011;21556;55.782;37.528;2023-04-19T06:33:31;12.85;;;6.35;;
35434;SDS011;21556;55.782;37.528;2023-04-19T06:35:57;13.50;;;7.22;;
35434;SDS011;21556;55.782;37.528;2023-04-19T06:38:23;12.57;;;5.60;;
35434;SDS011;21556;55.782;37.528;2023-04-19T06:40:49;7.45;;;5.68;;
35434;SDS011;21556;55.782;37.528;2023-04-19T06:43:15;11.82;;;6.07;;
35434;SDS011;21556;55.782;37.528;2023-04-19T06:45:41;19.60;;;7.80;;
35434;SDS011;21556;55.782;37.528;2023-04-19T06:48:06;10.55;;;5.60;;
35434;SDS011;21556;55.782;37.528;2023-04-19T06:50:32;9.75;;;4.90;;
35434;SDS011;21556;55.782;37.528;2023-04-19T06:52:58;13.00;;;5.07;;
35434;SDS011;21556;55.782;37.528;2023-04-19T06:55:26;10.27;;;5.40;;
35434;SDS011;21556;55.782;37.528;2023-04-19T06:57:52;9.32;;;4.65;;
35434;SDS011;21556;55.782;37.528;2023-04-19T07:00:18;7.78;;;4.28;;
35434;SDS011;21556;55.782;37.528;2023-04-19T07:02:44;9.02;;;5.10;;
35434;SDS011;21556;55.782;37.528;2023-04-19T07:05:10;9.23;;;4.50;;
35434;SDS011;21556;55.782;37.528;2023-04-19T07:07:37;10.07;;;4.70;;
35434;SDS011;21556;55.782;37.528;2023-04-19T07:10:06;8.07;;;3.72;;
35434;SDS011;21556;55.782;37.528;2023-04-19T07:12:37;9.57;;;4.05;;
35434;SDS011;21556;55.782;37.528;2023-04-19T07:15:05;8.05;;;3.88;;
35434;SDS011;21556;55.782;37.528;2023-04-19T07:17:32;9.10;;;4.03;;
35434;SDS011;21556;55.782;37.528;2023-04-19T07:19:59;9.02;;;4.10;;
35434;SDS011;21556;55.782;37.528;2023-04-19T07:22:25;6.68;;;3.70;;
35434;SDS011;21556;55.782;37.528;2023-04-19T07:24:52;6.50;;;3.50;;
35434;SDS011;21556;55.782;37.528;2023-04-19T07:27:18;7.38;;;4.15;;
35434;SDS011;21556;55.782;37.528;2023-04-19T07:29:44;9.15;;;4.10;;
35434;SDS011;21556;55.782;37.528;2023-04-19T07:32:11;11.68;;;4.55;;
35434;SDS011;21556;55.782;37.528;2023-04-19T07:34:38;7.10;;;3.85;;
35434;SDS011;21556;55.782;37.528;2023-04-19T07:37:06;5.97;;;4.25;;
35434;SDS011;21556;55.782;37.528;2023-04-19T07:39:32;7.43;;;3.83;;
35434;SDS011;21556;55.782;37.528;2023-04-19T07:41:58;6.90;;;3.92;;
35434;SDS011;21556;55.782;37.528;2023-04-19T07:44:25;12.87;;;4.00;;
35434;SDS011;21556;55.782;37.528;2023-04-19T07:46:51;10.98;;;3.65;;
35434;SDS011;21556;55.782;37.528;2023-04-19T07:49:18;9.38;;;4.35;;
35434;SDS011;21556;55.782;37.528;2023-04-19T07:51:44;8.85;;;4.10;;
35434;SDS011;21556;55.782;37.528;2023-04-19T07:54:10;9.55;;;4.20;;
35434;SDS011;21556;55.782;37.528;2023-04-19T07:56:36;13.60;;;4.05;;
35434;SDS011;21556;55.782;37.528;2023-04-19T07:59:02;10.55;;;4.60;;
35434;SDS011;21556;55.782;37.528;2023-04-19T08:01:28;7.70;;;3.80;;
35434;SDS011;21556;55.782;37.528;2023-04-19T08:03:54;11.38;;;4.20;;
35434;SDS011;21556;55.782;37.528;2023-04-19T08:06:20;13.98;;;4.40;;
35434;SDS011;21556;55.782;37.528;2023-04-19T08:08:47;7.47;;;3.92;;
35434;SDS011;21556;55.782;37.528;2023-04-19T08:11:13;9.20;;;3.78;;
35434;SDS011;21556;55.782;37.528;2023-04-19T08:13:39;11.13;;;4.90;;
35434;SDS011;21556;55.782;37.528;2023-04-19T08:16:06;8.77;;;4.13;;
35434;SDS011;21556;55.782;37.528;2023-04-19T08:18:32;7.47;;;4.22;;
35434;SDS011;21556;55.782;37.528;2023-04-19T08:21:00;8.00;;;3.95;;
35434;SDS011;21556;55.782;37.528;2023-04-19T08:23:26;7.88;;;3.85;;
35434;SDS011;21556;55.782;37.528;2023-04-19T08:25:52;5.65;;;3.80;;
35434;SDS011;21556;55.782;37.528;2023-04-19T08:28:18;12.85;;;5.05;;
35434;SDS011;21556;55.782;37.528;2023-04-19T08:30:45;15.07;;;4.45;;
35434;SDS011;21556;55.782;37.528;2023-04-19T08:33:11;10.45;;;4.47;;
35434;SDS011;21556;55.782;37.528;2023-04-19T08:35:38;9.07;;;4.70;;
35434;SDS011;21556;55.782;37.528;2023-04-19T08:38:06;9.77;;;4.03;;
35434;SDS011;21556;55.782;37.528;2023-04-19T08:40:32;10.80;;;4.00;;
35434;SDS011;21556;55.782;37.528;2023-04-19T08:42:58;5.10;;;3.92;;
35434;SDS011;21556;55.782;37.528;2023-04-19T08:45:30;9.05;;;3.80;;
35434;SDS011;21556;55.782;37.528;2023-04-19T08:47:57;10.05;;;4.10;;
35434;SDS011;21556;55.782;37.528;2023-04-19T08:50:26;9.10;;;4.50;;
35434;SDS011;21556;55.782;37.528;2023-04-19T08:52:53;9.80;;;4.30;;
35434;SDS011;21556;55.782;37.528;2023-04-19T08:55:20;10.18;;;4.53;;
35434;SDS011;21556;55.782;37.528;2023-04-19T08:57:48;6.97;;;4.03;;
35434;SDS011;21556;55.782;37.528;2023-04-19T09:00:15;6.57;;;4.45;;
35434;SDS011;21556;55.782;37.528;2023-04-19T09:02:51;10.05;;;4.13;;
35434;SDS011;21556;55.782;37.528;2023-04-19T09:05:19;9.55;;;4.10;;
35434;SDS011;21556;55.782;37.528;2023-04-19T09:07:45;7.90;;;4.63;;
35434;SDS011;21556;55.782;37.528;2023-04-19T09:10:12;8.10;;;4.20;;
35434;SDS011;21556;55.782;37.528;2023-04-19T09:13:02;7.80;;;3.85;;
35434;SDS011;21556;55.782;37.528;2023-04-19T09:15:39;5.78;;;3.80;;
35434;SDS011;21556;55.782;37.528;2023-04-19T09:18:06;10.77;;;4.55;;
35434;SDS011;21556;55.782;37.528;2023-04-19T09:20:39;6.78;;;3.80;;
35434;SDS011;21556;55.782;37.528;2023-04-19T09:23:15;9.27;;;3.80;;
35434;SDS011;21556;55.782;37.528;2023-04-19T09:25:51;5.13;;;3.90;;
35434;SDS011;21556;55.782;37.528;2023-04-19T09:28:18;7.00;;;3.60;;
35434;SDS011;21556;55.782;37.528;2023-04-19T09:30:44;4.80;;;3.90;;
35434;SDS011;21556;55.782;37.528;2023-04-19T09:33:11;5.13;;;3.75;;
35434;SDS011;21556;55.782;37.528;2023-04-19T09:38:12;8.55;;;3.88;;
35434;SDS011;21556;55.782;37.528;2023-04-19T09:40:39;6.72;;;3.70;;
35434;SDS011;21556;55.782;37.528;2023-04-19T09:43:11;8.10;;;4.25;;
35434;SDS011;21556;55.782;37.528;2023-04-19T09:45:41;6.45;;;3.67;;
35434;SDS011;21556;55.782;37.528;2023-04-19T09:48:10;4.75;;;3.65;;
35434;SDS011;21556;55.782;37.528;2023-04-19T09:50:56;4.72;;;4.05;;
35434;SDS011;21556;55.782;37.528;2023-04-19T09:53:25;7.97;;;3.78;;
35434;SDS011;21556;55.782;37.528;2023-04-19T09:55:55;8.48;;;4.43;;
35434;SDS011;21556;55.782;37.528;2023-04-19T09:58:24;6.30;;;4.75;;
35434;SDS011;21556;55.782;37.528;2023-04-19T10:00:51;7.28;;;4.65;;
35434;SDS011;21556;55.782;37.528;2023-04-19T10:03:24;4.93;;;3.72;;
35434;SDS011;21556;55.782;37.528;2023-04-19T10:05:53;6.15;;;3.85;;
35434;SDS011;21556;55.782;37.528;2023-04-19T10:08:19;7.45;;;3.83;;
35434;SDS011;21556;55.782;37.528;2023-04-19T10:10:46;7.85;;;3.90;;
35434;SDS011;21556;55.782;37.528;2023-04-19T10:13:19;6.20;;;4.22;;
35434;SDS011;21556;55.782;37.528;2023-04-19T10:15:47;9.32;;;4.10;;
35434;SDS011;21556;55.782;37.528;2023-04-19T10:18:14;9.63;;;4.43;;
35434;SDS011;21556;55.782;37.528;2023-04-19T10:20:41;13.38;;;4.60;;
35434;SDS011;21556;55.782;37.528;2023-04-19T10:23:14;7.97;;;4.25;;
35434;SDS011;21556;55.782;37.528;2023-04-19T10:25:44;5.55;;;4.13;;
35434;SDS011;21556;55.782;37.528;2023-04-19T10:28:12;12.35;;;4.30;;
35434;SDS011;21556;55.782;37.528;2023-04-19T10:30:54;7.25;;;4.03;;
35434;SDS011;21556;55.782;37.528;2023-04-19T10:33:25;10.32;;;4.50;;
35434;SDS011;21556;55.782;37.528;2023-04-19T10:35:56;7.15;;;4.07;;
35434;SDS011;21556;55.782;37.528;2023-04-19T10:38:37;14.27;;;4.32;;
35434;SDS011;21556;55.782;37.528;2023-04-19T10:41:11;8.30;;;4.82;;
35434;SDS011;21556;55.782;37.528;2023-04-19T10:43:42;11.45;;;3.58;;
35434;SDS011;21556;55.782;37.528;2023-04-19T10:48:56;10.93;;;4.10;;
35434;SDS011;21556;55.782;37.528;2023-04-19T10:51:33;8.25;;;3.90;;
35434;SDS011;21556;55.782;37.528;2023-04-19T10:54:04;11.35;;;4.18;;
35434;SDS011;21556;55.782;37.528;2023-04-19T11:01:56;6.10;;;4.00;;
35434;SDS011;21556;55.782;37.528;2023-04-19T11:07:04;9.07;;;4.13;;
35434;SDS011;21556;55.782;37.528;2023-04-19T11:09:38;8.63;;;3.72;;
35434;SDS011;21556;55.782;37.528;2023-04-19T11:12:12;7.22;;;3.90;;
35434;SDS011;21556;55.782;37.528;2023-04-19T11:14:56;5.25;;;4.22;;
35434;SDS011;21556;55.782;37.528;2023-04-19T11:17:30;13.70;;;3.78;;
35434;SDS011;21556;55.782;37.528;2023-04-19T11:25:17;4.57;;;3.47;;
35434;SDS011;21556;55.782;37.528;2023-04-19T11:27:50;6.35;;;3.72;;
35434;SDS011;21556;55.782;37.528;2023-04-19T11:30:18;8.70;;;4.25;;
35434;SDS011;21556;55.782;37.528;2023-04-19T11:32:56;8.82;;;3.90;;
35434;SDS011;21556;55.782;37.528;2023-04-19T11:35:23;9.50;;;4.53;;
35434;SDS011;21556;55.782;37.528;2023-04-19T11:37:53;5.93;;;3.38;;
35434;SDS011;21556;55.782;37.528;2023-04-19T11:40:21;5.45;;;3.55;;
35434;SDS011;21556;55.782;37.528;2023-04-19T11:42:53;5.57;;;3.55;;
35434;SDS011;21556;55.782;37.528;2023-04-19T11:45:34;10.23;;;4.15;;
35434;SDS011;21556;55.782;37.528;2023-04-19T11:48:06;4.68;;;3.47;;
35434;SDS011;21556;55.782;37.528;2023-04-19T11:50:43;7.78;;;3.85;;
35434;SDS011;21556;55.782;37.528;2023-04-19T11:53:12;6.75;;;3.80;;
35434;SDS011;21556;55.782;37.528;2023-04-19T11:55:48;9.05;;;4.00;;
35434;SDS011;21556;55.782;37.528;2023-04-19T12:01:09;5.90;;;4.00;;
35434;SDS011;21556;55.782;37.528;2023-04-19T12:03:49;9.02;;;4.00;;
35434;SDS011;21556;55.782;37.528;2023-04-19T12:06:23;6.75;;;3.80;;
35434;SDS011;21556;55.782;37.528;2023-04-19T12:08:55;7.72;;;3.67;;
35434;SDS011;21556;55.782;37.528;2023-04-19T12:11:25;7.25;;;4.03;;
35434;SDS011;21556;55.782;37.528;2023-04-19T12:14:12;5.03;;;3.57;;
35434;SDS011;21556;55.782;37.528;2023-04-19T12:16:44;7.43;;;3.60;;
35434;SDS011;21556;55.782;37.528;2023-04-19T12:21:42;7.35;;;3.90;;
35434;SDS011;21556;55.782;37.528;2023-04-19T12:24:09;7.80;;;4.28;;
35434;SDS011;21556;55.782;37.528;2023-04-19T12:26:35;13.10;;;4.10;;
35434;SDS011;21556;55.782;37.528;2023-04-19T12:29:02;11.98;;;4.85;;
35434;SDS011;21556;55.782;37.528;2023-04-19T12:31:29;5.93;;;4.28;;
35434;SDS011;21556;55.782;37.528;2023-04-19T12:33:56;6.68;;;3.97;;
35434;SDS011;21556;55.782;37.528;2023-04-19T12:36:23;10.25;;;3.80;;
35434;SDS011;21556;55.782;37.528;2023-04-19T12:38:49;5.18;;;4.35;;
35434;SDS011;21556;55.782;37.528;2023-04-19T12:41:17;8.43;;;3.67;;
35434;SDS011;21556;55.782;37.528;2023-04-19T12:43:44;5.97;;;3.97;;
35434;SDS011;21556;55.782;37.528;2023-04-19T12:46:13;5.57;;;3.70;;
35434;SDS011;21556;55.782;37.528;2023-04-19T12:48:39;4.55;;;3.85;;
35434;SDS011;21556;55.782;37.528;2023-04-19T12:51:05;5.50;;;4.03;;
35434;SDS011;21556;55.782;37.528;2023-04-19T12:53:32;5.63;;;4.03;;
35434;SDS011;21556;55.782;37.528;2023-04-19T12:55:58;6.88;;;3.70;;
35434;SDS011;21556;55.782;37.528;2023-04-19T12:58:23;9.15;;;4.63;;
35434;SDS011;21556;55.782;37.528;2023-04-19T13:00:50;6.32;;;4.47;;
35434;SDS011;21556;55.782;37.528;2023-04-19T13:03:18;6.40;;;4.07;;
35434;SDS011;21556;55.782;37.528;2023-04-19T13:05:44;10.38;;;4.78;;
35434;SDS011;21556;55.782;37.528;2023-04-19T13:08:09;5.38;;;3.80;;
35434;SDS011;21556;55.782;37.528;2023-04-19T13:10:35;6.70;;;4.43;;
35434;SDS011;21556;55.782;37.528;2023-04-19T13:13:03;14.95;;;4.10;;
35434;SDS011;21556;55.782;37.528;2023-04-19T13:15:29;7.45;;;4.95;;
35434;SDS011;21556;55.782;37.528;2023-04-19T13:20:23;5.40;;;4.90;;
35434;SDS011;21556;55.782;37.528;2023-04-19T13:22:51;9.65;;;6.35;;
35434;SDS011;21556;55.782;37.528;2023-04-19T13:25:20;8.50;;;4.00;;
35434;SDS011;21556;55.782;37.528;2023-04-19T13:27:47;7.82;;;4.65;;
35434;SDS011;21556;55.782;37.528;2023-04-19T13:30:13;11.93;;;4.93;;
35434;SDS011;21556;55.782;37.528;2023-04-19T13:32:39;6.95;;;4.28;;
35434;SDS011;21556;55.782;37.528;2023-04-19T13:35:08;8.48;;;4.22;;
35434;SDS011;21556;55.782;37.528;2023-04-19T13:37:34;8.20;;;4.28;;
35434;SDS011;21556;55.782;37.528;2023-04-19T13:40:00;6.57;;;3.75;;
35434;SDS011;21556;55.782;37.528;2023-04-19T13:42:29;6.35;;;4.20;;
35434;SDS011;21556;55.782;37.528;2023-04-19T13:44:55;8.02;;;4.13;;
35434;SDS011;21556;55.782;37.528;2023-04-19T13:47:22;5.60;;;3.75;;
35434;SDS011;21556;55.782;37.528;2023-04-19T13:49:51;8.13;;;4.80;;
35434;SDS011;21556;55.782;37.528;2023-04-19T13:52:17;8.05;;;4.85;;
35434;SDS011;21556;55.782;37.528;2023-04-19T13:54:44;7.05;;;4.85;;
35434;SDS011;21556;55.782;37.528;2023-04-19T13:57:12;9.88;;;5.85;;
35434;SDS011;21556;55.782;37.528;2023-04-19T13:59:38;7.25;;;4.72;;
35434;SDS011;21556;55.782;37.528;2023-04-19T14:02:04;8.40;;;4.38;;
35434;SDS011;21556;55.782;37.528;2023-04-19T14:04:31;7.90;;;3.67;;
35434;SDS011;21556;55.782;37.528;2023-04-19T14:06:57;6.05;;;4.10;;
35434;SDS011;21556;55.782;37.528;2023-04-19T14:09:26;5.85;;;3.53;;
35434;SDS011;21556;55.782;37.528;2023-04-19T14:11:52;5.07;;;4.25;;
35434;SDS011;21556;55.782;37.528;2023-04-19T14:14:18;5.03;;;4.35;;
35434;SDS011;21556;55.782;37.528;2023-04-19T14:16:45;8.82;;;4.38;;
35434;SDS011;21556;55.782;37.528;2023-04-19T14:19:11;6.85;;;4.82;;
35434;SDS011;21556;55.782;37.528;2023-04-19T14:21:42;8.77;;;5.20;;
35434;SDS011;21556;55.782;37.528;2023-04-19T14:24:09;11.93;;;4.22;;
35434;SDS011;21556;55.782;37.528;2023-04-19T14:26:36;5.85;;;5.18;;
35434;SDS011;21556;55.782;37.528;2023-04-19T14:29:02;6.35;;;4.32;;
35434;SDS011;21556;55.782;37.528;2023-04-19T14:31:31;5.80;;;4.57;;
35434;SDS011;21556;55.782;37.528;2023-04-19T14:33:59;8.45;;;5.20;;
35434;SDS011;21556;55.782;37.528;2023-04-19T14:36:25;5.60;;;3.67;;
35434;SDS011;21556;55.782;37.528;2023-04-19T14:38:51;10.85;;;4.00;;
35434;SDS011;21556;55.782;37.528;2023-04-19T14:41:17;7.63;;;5.50;;
35434;SDS011;21556;55.782;37.528;2023-04-19T14:43:43;9.27;;;3.70;;
35434;SDS011;21556;55.782;37.528;2023-04-19T14:46:10;6.07;;;4.00;;
35434;SDS011;21556;55.782;37.528;2023-04-19T14:48:41;7.82;;;3.55;;
35434;SDS011;21556;55.782;37.528;2023-04-19T14:51:11;6.90;;;4.97;;
35434;SDS011;21556;55.782;37.528;2023-04-19T14:53:38;6.47;;;4.63;;
35434;SDS011;21556;55.782;37.528;2023-04-19T14:56:07;12.70;;;4.22;;
35434;SDS011;21556;55.782;37.528;2023-04-19T14:58:33;5.85;;;3.38;;
35434;SDS011;21556;55.782;37.528;2023-04-19T15:01:09;7.85;;;4.60;;
35434;SDS011;21556;55.782;37.528;2023-04-19T15:03:39;5.10;;;3.78;;
35434;SDS011;21556;55.782;37.528;2023-04-19T15:06:05;4.50;;;3.42;;
35434;SDS011;21556;55.782;37.528;2023-04-19T15:08:35;6.20;;;4.50;;
35434;SDS011;21556;55.782;37.528;2023-04-19T15:11:02;6.47;;;3.55;;
35434;SDS011;21556;55.782;37.528;2023-04-19T15:13:29;6.43;;;3.65;;
35434;SDS011;21556;55.782;37.528;2023-04-19T15:16:00;6.80;;;3.95;;
35434;SDS011;21556;55.782;37.528;2023-04-19T15:18:28;7.07;;;3.53;;